OE7MFI-13 Weather Reports


Display with metric or nautical units.
time (UTC)temp
F
wind
direction
speed
MPH
gust
MPH
rain 1hr
in
rain 24hr
in
rain mn
in
humidity
%
barometer
mb
20201023221032 47 0.0 0.0 0.00 0.00 0.00 98 1016.2
20201023220033 47 0.0 0.0 0.00 0.00 0.00 98 1016.2
20201023215020 47 0.0 0.0 0.00 0.00 0.00 97 1016.3
20201023213034 46 0.0 0.0 0.00 0.00 0.00 97 1016.4
20201023212023 46 0.0 0.0 0.00 0.00 0.00 96 1016.4
20201023211027 46 0.0 0.0 0.00 0.00 0.00 96 1016.3
20201023210037 46 0.0 0.0 0.00 0.00 0.00 96 1016.2
20201023204030 46 0.0 0.0 0.00 0.00 0.00 96 1016.5
20201023203032 46 0.0 0.0 0.00 0.00 0.00 96 1016.2
20201023202021 46 0.0 0.0 0.00 0.00 0.00 95 1016.1
20201023201026 46 0.0 0.0 0.00 0.00 0.00 95 1016.1
20201023194030 46 0.0 0.0 0.00 0.00 0.00 94 1015.9
20201023193021 46 0.0 0.0 0.00 0.00 0.00 94 1015.8
20201023191032 46 0.0 0.0 0.00 0.00 0.00 94 1015.7
20201023185025 47 0.0 0.0 0.00 0.00 0.00 93 1015.5
20201023184035 47 0.0 0.0 0.00 0.00 0.00 93 1015.5
20201023183022 47 0.0 0.0 0.00 0.00 0.00 93 1015.6
20201023182026 48 0.0 0.0 0.00 0.00 0.00 92 1015.6
20201023171034 52 0.0 0.0 0.00 0.00 0.00 88 1015.3
20201023170031 52 0.0 0.0 0.00 0.00 0.00 87 1015.2
20201023165025 53 0.0 0.0 0.00 0.00 0.00 87 1015.0
20201023164032 53 0.0 0.0 0.00 0.00 0.00 85 1014.7
20201023163022 54 0.0 0.0 0.00 0.00 0.00 83 1014.8
20201023162024 55 0.0 0.0 0.00 0.00 0.00 83 1014.6
20201023160031 56 0.0 0.0 0.00 0.00 0.00 82 1014.7
20201023154030 57 0.0 0.0 0.00 0.00 0.00 79 1014.6
20201023152022 58 0.0 0.0 0.00 0.00 0.00 76 1014.5
20201023150031 59 0.0 0.0 0.00 0.00 0.00 74 1014.6
20201023145021 60 0.0 0.0 0.00 0.00 0.00 72 1014.7
20201023140033 62 0.0 0.0 0.00 0.00 0.00 62 1014.5
20201023135021 62 0.0 0.0 0.00 0.00 0.00 61 1014.6
20201023134025 63 0.0 0.0 0.00 0.00 0.00 60 1014.7
20201023131025 64 0.0 1.0 0.00 0.00 0.00 53 1014.8
20201023125018 65 0.0 0.0 0.00 0.00 0.00 55 1014.8
20201023124024 65 0.0 0.0 0.00 0.00 0.00 53 1014.8
20201023123029 66 180 0.0 1.0 0.00 0.00 0.00 51 1014.9
20201023122035 66 0.0 0.0 0.00 0.00 0.00 52 1015.0
20201023121103 66 0.0 0.0 0.00 0.00 0.00 53 1015.0
20201023120025 65 0.0 0.0 0.00 0.00 0.00 56 1015.1
20201023115031 64 0.0 0.0 0.00 0.00 0.00 56 1015.3
20201023112020 62 0.0 0.0 0.00 0.00 0.00 60 1015.9
20201023111031 61 0.0 0.0 0.00 0.00 0.00 60 1015.9
20201023105027 60 0.0 0.0 0.00 0.00 0.00 63 1016.1
20201023104019 59 0.0 0.0 0.00 0.00 0.00 65 1016.3
20201023103026 59 180 0.0 1.0 0.00 0.00 0.00 67 1016.3
20201023101035 58 0.0 0.0 0.00 0.00 0.00 68 1016.6
20201023095027 56 0.0 0.0 0.00 0.00 0.00 73 1016.8
20201023094032 55 180 0.0 2.0 0.00 0.00 0.00 78 1016.8
20201023093028 53 0.0 0.0 0.00 0.00 0.00 86 1016.7
20201023091019 51 0.0 0.0 0.00 0.00 0.00 95 1016.9
20201023085038 48 0.0 0.0 0.00 0.00 0.00 97 1017.0
20201023084024 48 0.0 0.0 0.00 0.00 0.00 97 1017.2
20201023082026 47 0.0 0.0 0.00 0.00 0.00 99 1017.2
20201023081031 45 0.0 0.0 0.00 0.00 0.00 97 1017.1
20201023074028 43 0.0 0.0 0.00 0.00 0.00 98 1017.3
20201023072020 42 0.0 0.0 0.00 0.00 0.00 99 1017.1
20201023070032 42 0.0 0.0 0.00 0.00 0.00 99 1017.1
20201023062025 40 0.0 0.0 0.00 0.00 0.00 99 1017.0
20201023061033 40 0.0 0.0 0.00 0.00 0.00 99 1017.0
20201023060035 41 0.0 0.0 0.00 0.00 0.00 99 1017.0
20201023053029 41 0.0 0.0 0.00 0.00 0.00 99 1017.2
20201023051020 42 0.0 0.0 0.00 0.00 0.00 99 1017.6
20201023050023 42 0.0 0.0 0.00 0.00 0.00 99 1017.7
20201023044026 42 0.0 0.0 0.00 0.00 0.00 98 1017.9
20201023042021 42 0.0 0.0 0.00 0.00 0.00 98 1018.0
20201023035033 42 0.0 0.0 0.00 0.00 0.00 99 1018.2
20201023034021 42 0.0 0.0 0.00 0.00 0.00 99 1018.3
20201023030032 42 0.0 0.0 0.00 0.00 0.00 99 1018.2
20201023023032 42 0.0 0.0 0.00 0.00 0.00 98 1017.9
20201023020020 42 0.0 0.0 0.00 0.00 0.00 99 1017.9
20201023015026 42 0.0 0.0 0.00 0.00 0.00 99 1018.0
20201023013021 41 0.0 0.0 0.00 0.00 0.00 99 1018.2
20201023012020 41 0.0 0.0 0.00 0.00 0.00 99 1018.2
20201023011022 41 0.0 0.0 0.00 0.00 0.00 99 1018.5
20201023003026 41 0.0 0.0 0.00 0.00 0.00 99 1018.8
20201023002029 40 0.0 0.0 0.00 0.00 0.00 99 1018.9
20201023001033 40 0.0 0.0 0.00 0.00 0.00 99 1019.0
20201023000027 40 0.0 0.0 0.00 0.00 0.00 99 1019.0
20201022235025 39 0.0 0.0 0.00 0.00 0.00 99 1019.1
20201022234034 39 0.0 0.0 0.00 0.00 0.00 99 1019.2
20201022233019 39 0.0 0.0 0.00 0.00 0.00 99 1019.3
20201022223022 39 0.0 0.0 0.00 0.00 0.00 98 1019.6